Time;durP1;ratioP1;P1;durP2;ratioP2;P2;SDS_P1;SDS_P2;PMS_P1;PMS_P2;Temp;Humidity;BMP_temperature;BMP_pressure;BME280_temperature;BME280_humidity;BME280_pressure;Samples;Min_cycle;Max_cycle;Signal;HPM_P1;HPM_P2
2024/01/16 00:01:54;;;;;;;;;;;;;;;-2.11;100.00;95907.34;5047819;28;19934;-76
2024/01/16 00:04:20;;;;;;;;;;;;;;;-2.12;100.00;95913.44;5065025;28;19939;-77
2024/01/16 00:06:45;;;;;;;;;;;;;;;-2.11;100.00;95908.16;5065300;28;19938;-76
2024/01/16 00:09:11;;;;;;;;;;;;;;;-2.11;100.00;95912.50;5047060;28;20001;-78
2024/01/16 00:11:41;;;;;;;;;;;;;;;-2.12;100.00;95905.72;5047094;28;19975;-80
2024/01/16 00:14:07;;;;;;;;;;;;;;;-2.11;100.00;95908.16;5064773;28;19937;-79
2024/01/16 00:16:33;;;;;;;;;;;;;;;-2.12;100.00;95905.72;5064457;28;19949;-80
2024/01/16 00:18:59;;;;;;;;;;;;;;;-2.12;100.00;95885.16;5046642;28;19958;-77
2024/01/16 00:21:24;;;;;;;;;;;;;;;-2.15;100.00;95894.00;5064636;28;19937;-77
2024/01/16 00:23:50;;;;;;;;;;;;;;;-2.16;100.00;95901.84;5063530;28;19940;-78
2024/01/16 00:26:20;;;;;;;;;;;;;;;-2.17;100.00;95905.38;5047190;28;19942;-75
2024/01/16 00:28:46;;;;;;;;;;;;;;;-2.17;100.00;95913.88;5065068;28;19939;-72
2024/01/16 00:31:12;;;;;;;;;;;;;;;-2.18;100.00;95903.75;5046812;28;20229;-71
2024/01/16 00:33:38;;;;;;;;;;;;;;;-2.17;100.00;95910.53;5065230;28;19937;-72
2024/01/16 00:36:04;;;;;;;;;;;;;;;-2.16;100.00;95904.41;5030114;28;19937;-72
2024/01/16 00:38:32;;;;;;;;;;;;;;;-2.17;100.00;95901.03;5064313;28;19954;-71
2024/01/16 00:40:58;;;;;;;;;;;;;;;-2.18;100.00;95891.75;5064317;28;20205;-71
2024/01/16 00:43:24;;;;;;;;;;;;;;;-2.16;100.00;95894.13;5046565;28;19942;-71
2024/01/16 00:45:50;;;;;;;;;;;;;;;-2.15;100.00;95893.19;5030041;28;20251;-79
2024/01/16 00:48:16;;;;;;;;;;;;;;;-2.15;100.00;95896.56;5064206;28;19935;-79
2024/01/16 00:50:42;;;;;;;;;;;;;;;-2.16;100.00;95905.25;5064922;28;19980;-79
2024/01/16 00:53:08;;;;;;;;;;;;;;;-2.16;100.00;95902.66;5064685;28;19936;-79
2024/01/16 00:55:34;;;;;;;;;;;;;;;-2.18;100.00;95896.88;5064823;28;19970;-79
2024/01/16 00:58:00;;;;;;;;;;;;;;;-2.21;100.00;95892.03;5064187;28;19953;-79
2024/01/16 01:00:26;;;;;;;;;;;;;;;-2.23;100.00;95878.53;5064448;28;19937;-69
2024/01/16 01:02:52;;;;;;;;;;;;;;;-2.25;100.00;95875.31;5046477;28;19932;-77
2024/01/16 01:05:18;;;;;;;;;;;;;;;-2.23;100.00;95875.16;5064023;28;20239;-76
2024/01/16 01:07:43;;;;;;;;;;;;;;;-2.26;100.00;95887.34;5046181;28;19935;-79
2024/01/16 01:10:09;;;;;;;;;;;;;;;-2.30;100.00;95887.81;5064670;28;20225;-77
2024/01/16 01:12:35;;;;;;;;;;;;;;;-2.36;100.00;95878.94;5063914;28;19939;-76
2024/01/16 01:15:01;;;;;;;;;;;;;;;-2.37;100.00;95900.47;5063892;28;19934;-76
2024/01/16 01:17:27;;;;;;;;;;;;;;;-2.37;100.00;95881.66;5063686;28;20304;-76
2024/01/16 01:19:53;;;;;;;;;;;;;;;-2.39;100.00;95879.25;5063256;28;19941;-72
2024/01/16 01:22:19;;;;;;;;;;;;;;;-2.41;100.00;95891.44;5063933;28;20167;-71
2024/01/16 01:24:44;;;;;;;;;;;;;;;-2.44;100.00;95884.03;5046321;28;19942;-71
2024/01/16 01:27:10;;;;;;;;;;;;;;;-2.45;100.00;95888.38;5046186;28;19940;-71
2024/01/16 01:29:36;;;;;;;;;;;;;;;-2.47;100.00;95885.13;5046886;28;20127;-72
2024/01/16 01:32:02;;;;;;;;;;;;;;;-2.47;100.00;95895.41;5046106;28;19941;-71
2024/01/16 01:34:28;;;;;;;;;;;;;;;-2.47;100.00;95890.28;5063740;28;19971;-71
2024/01/16 01:36:57;;;;;;;;;;;;;;;-2.43;100.00;95908.75;5029484;28;19940;-71
2024/01/16 01:39:23;;;;;;;;;;;;;;;-2.41;100.00;95904.28;5063725;28;19934;-72
2024/01/16 01:41:49;;;;;;;;;;;;;;;-2.39;100.00;95898.97;5063629;28;19973;-73
2024/01/16 01:44:15;;;;;;;;;;;;;;;-2.36;100.00;95908.97;5045978;28;20101;-73
2024/01/16 01:46:42;;;;;;;;;;;;;;;-2.37;100.00;95897.88;5064106;28;20214;-74
2024/01/16 01:49:08;;;;;;;;;;;;;;;-2.38;100.00;95896.25;5046574;28;19951;-73
2024/01/16 01:51:34;;;;;;;;;;;;;;;-2.38;100.00;95909.09;5046464;28;19960;-73
2024/01/16 01:54:01;;;;;;;;;;;;;;;-2.38;100.00;95911.66;5045848;28;19937;-73
2024/01/16 01:56:27;;;;;;;;;;;;;;;-2.35;100.00;95918.25;5064082;28;19938;-71
2024/01/16 01:58:54;;;;;;;;;;;;;;;-2.38;100.00;95916.00;5046286;28;20259;-81
2024/01/16 02:01:21;;;;;;;;;;;;;;;-2.39;100.00;95927.22;5029810;28;19936;-80
2024/01/16 02:03:49;;;;;;;;;;;;;;;-2.39;100.00;95922.91;5029059;28;20134;-82
2024/01/16 02:06:16;;;;;;;;;;;;;;;-2.38;100.00;95931.41;5045477;28;19937;-82
2024/01/16 02:08:42;;;;;;;;;;;;;;;-2.38;100.00;95934.78;5063301;28;19950;-83
2024/01/16 02:11:08;;;;;;;;;;;;;;;-2.38;100.00;95921.16;5029836;28;19936;-83
2024/01/16 02:13:34;;;;;;;;;;;;;;;-2.41;100.00;95931.72;5063288;28;19927;-83
2024/01/16 02:16:00;;;;;;;;;;;;;;;-2.43;100.00;95933.63;5046331;28;19983;-72
2024/01/16 02:18:27;;;;;;;;;;;;;;;-2.47;100.00;95926.22;5062734;28;20138;-72
2024/01/16 02:20:55;;;;;;;;;;;;;;;-2.51;100.00;95932.59;5063203;28;19941;-72
2024/01/16 02:23:27;;;;;;;;;;;;;;;-2.57;100.00;95925.50;5063709;28;19939;-72
2024/01/16 02:25:54;;;;;;;;;;;;;;;-2.62;100.00;95932.84;5063665;28;19932;-72
2024/01/16 02:28:20;;;;;;;;;;;;;;;-2.68;100.00;95921.41;5045328;28;19945;-71
2024/01/16 02:30:46;;;;;;;;;;;;;;;-2.70;100.00;95918.19;5046257;28;19939;-72
2024/01/16 02:33:12;;;;;;;;;;;;;;;-2.73;100.00;95925.34;5066752;28;19935;-74
2024/01/16 02:35:37;;;;;;;;;;;;;;;-2.74;100.00;95932.25;5067190;28;20213;-73
2024/01/16 02:38:04;;;;;;;;;;;;;;;-2.75;100.00;95922.13;5066509;28;19951;-72
2024/01/16 02:40:30;;;;;;;;;;;;;;;-2.80;100.00;95927.72;5066862;28;19943;-71
2024/01/16 02:42:55;;;;;;;;;;;;;;;-2.83;100.00;95930.59;5066541;28;19938;-72
2024/01/16 02:45:22;;;;;;;;;;;;;;;-2.87;100.00;95930.06;5067174;28;19942;-72
2024/01/16 02:47:48;;;;;;;;;;;;;;;-2.90;100.00;95934.69;5048704;28;19931;-72
2024/01/16 02:50:14;;;;;;;;;;;;;;;-2.95;100.00;95924.84;5066446;28;19939;-72
2024/01/16 02:52:40;;;;;;;;;;;;;;;-2.99;100.00;95928.66;5032008;28;19943;-72
2024/01/16 02:55:06;;;;;;;;;;;;;;;-3.06;100.00;95931.00;5066851;28;20162;-72
2024/01/16 02:57:32;;;;;;;;;;;;;;;-3.07;100.00;95936.28;5066166;28;19933;-72
2024/01/16 02:59:57;;;;;;;;;;;;;;;-3.08;100.00;95939.81;5066213;28;19941;-72
2024/01/16 03:02:23;;;;;;;;;;;;;;;-3.10;100.00;95937.38;5048884;28;19937;-72
2024/01/16 03:04:49;;;;;;;;;;;;;;;-3.12;100.00;95938.50;5066569;28;19998;-71
2024/01/16 03:07:16;;;;;;;;;;;;;;;-3.12;100.00;95943.63;5066777;28;19930;-71
2024/01/16 03:09:41;;;;;;;;;;;;;;;-3.17;100.00;95933.81;5066000;28;19962;-80
2024/01/16 03:12:07;;;;;;;;;;;;;;;-3.20;100.00;95938.41;5066248;28;19935;-72
2024/01/16 03:14:35;;;;;;;;;;;;;;;-3.23;100.00;95933.53;5048519;28;19944;-70
2024/01/16 03:17:01;;;;;;;;;;;;;;;-3.29;100.00;95940.88;5065740;28;19986;-70
2024/01/16 03:19:27;;;;;;;;;;;;;;;-3.35;100.00;95927.84;5031562;28;20253;-70
2024/01/16 03:21:53;;;;;;;;;;;;;;;-3.39;100.00;95940.13;5032344;28;19943;-70
2024/01/16 03:24:19;;;;;;;;;;;;;;;-3.42;100.00;95944.72;5065809;28;19932;-69
2024/01/16 03:26:46;;;;;;;;;;;;;;;-3.45;100.00;95938.13;5048561;28;19934;-69
2024/01/16 03:29:11;;;;;;;;;;;;;;;-3.46;100.00;95941.66;5031334;28;19941;-69
2024/01/16 03:31:37;;;;;;;;;;;;;;;-3.49;100.00;95939.38;5066377;28;19957;-69
2024/01/16 03:34:03;;;;;;;;;;;;;;;-3.51;100.00;95936.97;5065636;28;19971;-70
2024/01/16 03:36:29;;;;;;;;;;;;;;;-3.52;100.00;95937.09;5047928;28;19954;-70
2024/01/16 03:38:55;;;;;;;;;;;;;;;-3.54;100.00;95944.94;5065396;28;20207;-70
2024/01/16 03:41:21;;;;;;;;;;;;;;;-3.54;100.00;95944.94;5066053;28;19932;-70
2024/01/16 03:43:47;;;;;;;;;;;;;;;-3.57;100.00;95934.97;5065477;28;19973;-70
2024/01/16 03:46:12;;;;;;;;;;;;;;;-3.57;100.00;95940.09;5065409;28;20005;-77
2024/01/16 03:48:39;;;;;;;;;;;;;;;-3.62;100.00;95936.34;5065342;28;19928;-72
2024/01/16 03:51:06;;;;;;;;;;;;;;;-3.67;100.00;95932.44;5066370;28;20091;-70
2024/01/16 03:53:32;;;;;;;;;;;;;;;-3.71;100.00;95927.75;5065239;28;19932;-70
2024/01/16 03:55:58;;;;;;;;;;;;;;;-3.76;100.00;95923.06;5047160;28;19938;-70
2024/01/16 03:58:24;;;;;;;;;;;;;;;-3.79;100.00;95933.56;5065083;28;19995;-70
2024/01/16 04:00:53;;;;;;;;;;;;;;;-3.83;100.00;95926.31;5065665;28;19979;-70
2024/01/16 04:03:19;;;;;;;;;;;;;;;-3.88;100.00;95922.41;5047320;28;19956;-70
2024/01/16 04:05:45;;;;;;;;;;;;;;;-3.92;100.00;95927.97;5065071;28;20231;-72
2024/01/16 04:08:12;;;;;;;;;;;;;;;-3.97;100.00;95925.84;5031491;28;19958;-72
2024/01/16 04:10:38;;;;;;;;;;;;;;;-4.02;100.00;95929.75;5047242;28;19936;-72
2024/01/16 04:13:04;;;;;;;;;;;;;;;-4.05;100.00;95925.72;5064886;28;19938;-71
2024/01/16 04:15:29;;;;;;;;;;;;;;;-4.10;100.00;95933.81;5065353;28;19934;-72
2024/01/16 04:17:55;;;;;;;;;;;;;;;-4.14;100.00;95932.47;5064566;28;20035;-72
2024/01/16 04:20:21;;;;;;;;;;;;;;;-4.22;100.00;95914.47;5065600;28;19937;-72
2024/01/16 04:22:47;;;;;;;;;;;;;;;-4.30;100.00;95909.22;5064711;28;19927;-82
2024/01/16 04:25:13;;;;;;;;;;;;;;;-4.35;100.00;95916.50;5047126;28;20123;-71
2024/01/16 04:27:39;;;;;;;;;;;;;;;-4.38;100.00;95920.16;5063671;28;19932;-71
2024/01/16 04:30:05;;;;;;;;;;;;;;;-4.41;100.00;95914.50;5065315;28;19933;-70
2024/01/16 04:32:31;;;;;;;;;;;;;;;-4.44;100.00;95909.66;5046799;28;19931;-69
2024/01/16 04:34:57;;;;;;;;;;;;;;;-4.48;100.00;95909.13;5047294;28;20230;-70
2024/01/16 04:37:23;;;;;;;;;;;;;;;-4.53;100.00;95901.06;5046789;28;19982;-69
2024/01/16 04:39:49;;;;;;;;;;;;;;;-4.59;100.00;95899.03;5064901;28;19948;-69
2024/01/16 04:42:17;;;;;;;;;;;;;;;-4.65;100.00;95890.16;5065197;28;19937;-70
2024/01/16 04:44:43;;;;;;;;;;;;;;;-4.69;100.00;95899.06;5046609;28;20228;-72
2024/01/16 04:47:09;;;;;;;;;;;;;;;-4.74;100.00;95916.56;5046652;28;19943;-72
2024/01/16 04:49:35;;;;;;;;;;;;;;;-4.78;100.00;95907.56;5064241;28;19936;-72
2024/01/16 04:52:01;;;;;;;;;;;;;;;-4.80;100.00;95914.56;5047346;28;19938;-72
2024/01/16 04:54:27;;;;;;;;;;;;;;;-4.81;100.00;95911.16;5063480;28;19935;-72
2024/01/16 04:56:52;;;;;;;;;;;;;;;-4.84;100.00;95900.41;5064737;28;19937;-72
2024/01/16 04:59:18;;;;;;;;;;;;;;;-4.91;100.00;95892.50;5064111;28;20253;-72
2024/01/16 05:01:44;;;;;;;;;;;;;;;-4.94;100.00;95903.78;5046473;28;19945;-72
2024/01/16 05:04:10;;;;;;;;;;;;;;;-4.98;100.00;95899.06;5064900;28;20198;-71
2024/01/16 05:06:36;;;;;;;;;;;;;;;-5.01;100.00;95894.25;5064138;28;19933;-71
2024/01/16 05:09:03;;;;;;;;;;;;;;;-5.01;100.00;95896.78;5064194;28;19947;-72
2024/01/16 05:11:29;;;;;;;;;;;;;;;-5.03;100.00;95888.44;5064277;28;19958;-71
2024/01/16 05:13:57;;;;;;;;;;;;;;;-5.05;100.00;95893.69;5046893;28;20200;-72
2024/01/16 05:16:27;;;;;;;;;;;;;;;-5.07;100.00;95890.47;5063809;28;19937;-72
2024/01/16 05:18:53;;;;;;;;;;;;;;;-5.06;100.00;95886.16;5064391;28;19959;-70
2024/01/16 05:21:20;;;;;;;;;;;;;;;-5.08;100.00;95883.75;5063910;28;19947;-78
2024/01/16 05:23:45;;;;;;;;;;;;;;;-5.08;100.00;95885.47;5064377;28;19935;-79
2024/01/16 05:26:12;;;;;;;;;;;;;;;-5.07;100.00;95885.34;5063860;28;19938;-79
2024/01/16 05:28:41;;;;;;;;;;;;;;;-5.05;100.00;95885.22;5063808;28;20266;-80
2024/01/16 05:31:07;;;;;;;;;;;;;;;-5.05;100.00;95882.66;5063794;28;20232;-80
2024/01/16 05:33:33;;;;;;;;;;;;;;;-5.04;100.00;95886.81;5064620;28;19933;-80
2024/01/16 05:35:59;;;;;;;;;;;;;;;-5.05;100.00;95893.69;5063737;28;20270;-80
2024/01/16 05:38:24;;;;;;;;;;;;;;;-5.05;100.00;95892.88;5063695;28;20009;-80
2024/01/16 05:40:50;;;;;;;;;;;;;;;-5.03;100.00;95888.44;5064234;28;19936;-80
2024/01/16 05:43:16;;;;;;;;;;;;;;;-5.06;100.00;95892.09;5064219;28;19934;-80
2024/01/16 05:45:42;;;;;;;;;;;;;;;-5.08;100.00;95886.31;5063634;28;19943;-81
2024/01/16 05:48:08;;;;;;;;;;;;;;;-5.07;100.00;95887.09;5046512;28;19936;-80
2024/01/16 05:50:34;;;;;;;;;;;;;;;-5.06;100.00;95886.16;5046383;28;19941;-79
2024/01/16 05:53:00;;;;;;;;;;;;;;;-5.06;100.00;95883.59;5063577;28;20074;-80
2024/01/16 05:55:26;;;;;;;;;;;;;;;-5.06;100.00;95883.59;5045872;28;19943;-72
2024/01/16 05:57:52;;;;;;;;;;;;;;;-5.08;100.00;95872.69;5045669;28;19936;-69
2024/01/16 06:00:18;;;;;;;;;;;;;;;-5.14;100.00;95879.97;5063475;28;19933;-73
2024/01/16 06:02:44;;;;;;;;;;;;;;;-5.21;100.00;95881.44;5030038;28;19982;-75
2024/01/16 06:05:10;;;;;;;;;;;;;;;-5.23;100.00;95890.97;5064907;28;20103;-73
2024/01/16 06:07:36;;;;;;;;;;;;;;;-5.24;100.00;95891.94;5067210;28;19963;-73
2024/01/16 06:10:02;;;;;;;;;;;;;;;-5.25;100.00;95881.84;5067192;28;19931;-73
2024/01/16 06:12:28;;;;;;;;;;;;;;;-5.24;100.00;95891.94;5067191;28;20130;-73
2024/01/16 06:14:54;;;;;;;;;;;;;;;-5.22;100.00;95895.16;5067160;28;19933;-82
2024/01/16 06:17:20;;;;;;;;;;;;;;;-5.20;100.00;95888.16;5049171;28;19975;-72
2024/01/16 06:19:46;;;;;;;;;;;;;;;-5.19;100.00;95888.97;5067003;28;20058;-71
2024/01/16 06:22:12;;;;;;;;;;;;;;;-5.19;100.00;95884.66;5067023;28;20133;-71
2024/01/16 06:24:38;;;;;;;;;;;;;;;-5.18;100.00;95886.28;5067717;28;19927;-72
2024/01/16 06:27:05;;;;;;;;;;;;;;;-5.18;100.00;95881.19;5032579;28;19940;-71
2024/01/16 06:29:31;;;;;;;;;;;;;;;-5.17;100.00;95866.63;5049700;28;19939;-71
2024/01/16 06:31:56;;;;;;;;;;;;;;;-5.23;100.00;95872.28;5048994;28;20121;-73
2024/01/16 06:34:22;;;;;;;;;;;;;;;-5.31;100.00;95881.44;5067271;28;20207;-73
2024/01/16 06:36:48;;;;;;;;;;;;;;;-5.31;100.00;95891.66;5048765;28;19931;-81
2024/01/16 06:39:14;;;;;;;;;;;;;;;-5.30;100.00;95885.59;5049157;28;20038;-80
2024/01/16 06:41:40;;;;;;;;;;;;;;;-5.30;100.00;95892.47;5066617;28;19972;-79
2024/01/16 06:44:06;;;;;;;;;;;;;;;-5.28;100.00;95889.78;5066829;28;19935;-81
2024/01/16 06:46:32;;;;;;;;;;;;;;;-5.26;100.00;95898.13;5066536;28;20027;-82
2024/01/16 06:48:58;;;;;;;;;;;;;;;-5.26;100.00;95895.56;5067011;28;19932;-80
2024/01/16 06:51:24;;;;;;;;;;;;;;;-5.24;100.00;95889.38;5067055;28;19943;-73
2024/01/16 06:53:50;;;;;;;;;;;;;;;-5.23;100.00;95890.19;5066441;28;19937;-75
2024/01/16 06:56:16;;;;;;;;;;;;;;;-5.21;100.00;95885.75;5048742;28;20005;-75
2024/01/16 06:58:41;;;;;;;;;;;;;;;-5.17;100.00;95892.19;5066843;28;19956;-76
2024/01/16 07:01:09;;;;;;;;;;;;;;;-5.18;100.00;95876.06;5066539;28;19938;-74
2024/01/16 07:03:35;;;;;;;;;;;;;;;-5.14;100.00;95887.63;5066729;28;20233;-74
2024/01/16 07:06:01;;;;;;;;;;;;;;;-5.13;100.00;95866.22;5048627;28;19942;-75
2024/01/16 07:08:27;;;;;;;;;;;;;;;-5.18;100.00;95868.41;5066310;28;19948;-73
2024/01/16 07:10:53;;;;;;;;;;;;;;;-5.18;100.00;95881.19;5048933;28;20194;-73
2024/01/16 07:13:19;;;;;;;;;;;;;;;-5.18;100.00;95881.19;5048464;28;19932;-73
2024/01/16 07:15:45;;;;;;;;;;;;;;;-5.16;100.00;95878.50;5048230;28;19934;-73
2024/01/16 07:18:11;;;;;;;;;;;;;;;-5.15;100.00;95875.78;5047676;28;19964;-72
2024/01/16 07:20:36;;;;;;;;;;;;;;;-5.13;100.00;95879.00;5048084;28;19945;-73
2024/01/16 07:23:04;;;;;;;;;;;;;;;-5.11;100.00;95877.13;5048056;28;19940;-73
2024/01/16 07:25:30;;;;;;;;;;;;;;;-5.10;100.00;95877.97;5048657;28;19941;-73
2024/01/16 07:27:56;;;;;;;;;;;;;;;-5.09;100.00;95877.00;5065970;28;20114;-79
2024/01/16 07:30:22;;;;;;;;;;;;;;;-5.08;100.00;95878.63;5048029;28;19990;-76
2024/01/16 07:32:48;;;;;;;;;;;;;;;-5.07;100.00;95877.69;5065588;28;20220;-75
2024/01/16 07:35:14;;;;;;;;;;;;;;;-5.04;100.00;95879.16;5031230;28;20131;-75
2024/01/16 07:37:40;;;;;;;;;;;;;;;-5.01;100.00;95879.69;5066403;28;19949;-76
2024/01/16 07:40:06;;;;;;;;;;;;;;;-4.94;100.00;95902.97;5048276;28;19952;-76
2024/01/16 07:42:34;;;;;;;;;;;;;;;-4.79;100.00;95877.78;5065509;28;19946;-76
2024/01/16 07:45:04;;;;;;;;;;;;;;;-4.70;100.00;95864.19;5048376;28;19936;-76
2024/01/16 07:47:33;;;;;;;;;;;;;;;-4.69;100.00;95850.44;5065284;28;19938;-71
2024/01/16 07:50:02;;;;;;;;;;;;;;;-4.68;100.00;95846.97;5047402;28;19940;-74
2024/01/16 07:52:28;;;;;;;;;;;;;;;-4.67;100.00;95852.88;5047622;28;19932;-74
2024/01/16 07:54:54;;;;;;;;;;;;;;;-4.65;100.00;95843.31;5047398;28;19935;-74
2024/01/16 07:57:20;;;;;;;;;;;;;;;-4.62;100.00;95846.41;5065681;28;20217;-74
2024/01/16 07:59:46;;;;;;;;;;;;;;;-4.62;100.00;95843.03;5047206;28;19949;-74
2024/01/16 08:02:12;;;;;;;;;;;;;;;-4.63;100.00;95843.97;5065159;28;19937;-74
2024/01/16 08:04:38;;;;;;;;;;;;;;;-4.64;100.00;95852.59;5065041;28;19931;-79
2024/01/16 08:07:04;;;;;;;;;;;;;;;-4.61;100.00;95842.09;5030759;28;19935;-73
2024/01/16 08:09:29;;;;;;;;;;;;;;;-4.58;100.00;95834.91;5064789;28;19951;-73
2024/01/16 08:11:55;;;;;;;;;;;;;;;-4.55;100.00;95847.44;5046940;28;19937;-73
2024/01/16 08:14:21;;;;;;;;;;;;;;;-4.46;100.00;95845.81;5047204;28;19935;-73
2024/01/16 08:16:47;;;;;;;;;;;;;;;-4.40;100.00;95831.66;5047391;28;19976;-73
2024/01/16 08:19:13;;;;;;;;;;;;;;;-4.34;100.00;95851.56;5047014;28;19954;-73
2024/01/16 08:21:39;;;;;;;;;;;;;;;-4.35;100.00;95837.94;5046994;28;19940;-73
2024/01/16 08:24:05;;;;;;;;;;;;;;;-4.31;100.00;95844.41;5046684;28;19939;-74
2024/01/16 08:26:31;;;;;;;;;;;;;;;-4.23;100.00;95833.47;5046931;28;19939;-71
2024/01/16 08:28:57;;;;;;;;;;;;;;;-4.19;100.00;95849.38;5046828;28;20003;-71
2024/01/16 08:31:23;;;;;;;;;;;;;;;-4.11;100.00;95852.03;5065042;28;20203;-72
2024/01/16 08:33:49;;;;;;;;;;;;;;;-4.05;100.00;95841.22;5064980;28;19977;-71
2024/01/16 08:36:15;;;;;;;;;;;;;;;-3.94;100.00;95851.28;5064397;28;19936;-72
2024/01/16 08:38:41;;;;;;;;;;;;;;;-3.79;100.00;95854.16;5064349;28;19989;-71
2024/01/16 08:41:06;;;;;;;;;;;;;;;-3.63;100.00;95852.72;5064408;28;19939;-72
2024/01/16 08:43:33;;;;;;;;;;;;;;;-3.47;100.00;95848.56;5030010;28;19948;-72
2024/01/16 08:45:59;;;;;;;;;;;;;;;-3.35;100.00;95822.72;5064977;28;19937;-77
2024/01/16 08:48:25;;;;;;;;;;;;;;;-3.39;100.00;95811.16;5030463;28;20002;-76
2024/01/16 08:50:54;;;;;;;;;;;;;;;-3.44;100.00;95821.03;5064111;28;19944;-76
2024/01/16 08:53:22;;;;;;;;;;;;;;;-3.60;100.00;95814.00;5064172;28;20098;-77
2024/01/16 08:55:48;;;;;;;;;;;;;;;-3.57;100.00;95831.63;5029806;28;19937;-76
2024/01/16 08:58:14;;;;;;;;;;;;;;;-3.47;100.00;95829.81;5047334;28;20004;-76
2024/01/16 09:00:40;;;;;;;;;;;;;;;-3.29;100.00;95809.31;5064000;28;20160;-73
2024/01/16 09:03:07;;;;;;;;;;;;;;;-3.13;100.00;95818.88;5063969;28;19939;-71
2024/01/16 09:05:38;;;;;;;;;;;;;;;-2.98;100.00;95821.72;5046074;28;20247;-72
2024/01/16 09:08:04;;;;;;;;;;;;;;;-2.80;100.00;95816.56;5046650;28;19999;-72
2024/01/16 09:10:30;;;;;;;;;;;;;;;-2.54;100.00;95819.97;5064420;28;19967;-71
2024/01/16 09:12:56;;;;;;;;;;;;;;;-2.34;99.51;95779.44;5064679;28;20075;-72
2024/01/16 09:15:21;;;;;;;;;;;;;;;-2.28;100.00;95796.81;5046271;28;20216;-72
2024/01/16 09:17:47;;;;;;;;;;;;;;;-2.15;96.92;95754.50;5064000;28;19964;-74
2024/01/16 09:20:13;;;;;;;;;;;;;;;-2.14;99.41;95769.75;5045921;28;20051;-75
2024/01/16 09:22:39;;;;;;;;;;;;;;;-2.06;98.43;95772.34;5063891;28;19943;-79
2024/01/16 09:25:06;;;;;;;;;;;;;;;-1.93;99.35;95773.66;5045945;28;19976;-78
2024/01/16 09:27:32;;;;;;;;;;;;;;;-1.77;98.56;95778.03;5045989;28;19931;-79
2024/01/16 09:29:58;;;;;;;;;;;;;;;-1.67;98.20;95771.00;5046112;28;20215;-79
2024/01/16 09:32:23;;;;;;;;;;;;;;;-1.50;98.76;95774.38;5029489;28;20004;-79
2024/01/16 09:34:49;;;;;;;;;;;;;;;-1.31;99.17;95778.44;5045783;28;19988;-79
2024/01/16 09:37:15;;;;;;;;;;;;;;;-1.17;97.40;95769.28;5029494;28;20176;-78
2024/01/16 09:39:42;;;;;;;;;;;;;;;-1.02;98.08;95767.66;5046627;28;20097;-72
2024/01/16 09:42:08;;;;;;;;;;;;;;;-0.93;89.27;95710.03;5068447;28;19932;-72
2024/01/16 09:44:34;;;;;;;;;;;;;;;-1.07;94.62;95744.16;5067736;28;20272;-72
2024/01/16 09:47:01;;;;;;;;;;;;;;;-1.31;90.45;95709.78;5068151;28;19937;-72
2024/01/16 09:49:27;;;;;;;;;;;;;;;-1.53;95.16;95751.59;5033091;28;20133;-72
2024/01/16 09:51:53;;;;;;;;;;;;;;;-1.67;95.30;95755.56;5067621;28;19940;-72
2024/01/16 09:54:19;;;;;;;;;;;;;;;-1.80;96.81;95758.59;5049743;28;19982;-73
2024/01/16 09:56:47;;;;;;;;;;;;;;;-1.90;96.30;95755.38;5050563;28;19978;-73
2024/01/16 09:59:16;;;;;;;;;;;;;;;-1.93;100.00;95784.75;5068187;28;19948;-79
2024/01/16 10:01:42;;;;;;;;;;;;;;;-1.93;99.13;95769.34;5050434;28;20210;-79
2024/01/16 10:04:08;;;;;;;;;;;;;;;-1.96;98.78;95764.50;5033021;28;19943;-78
2024/01/16 10:06:34;;;;;;;;;;;;;;;-1.98;98.46;95755.34;5050190;28;19956;-78
2024/01/16 10:09:00;;;;;;;;;;;;;;;-2.05;97.06;95743.13;5006051;28;19960;-79
2024/01/16 10:11:26;;;;;;;;;;;;;;;-2.13;97.79;95745.66;4990421;28;19954;-79
2024/01/16 10:13:52;;;;;;;;;;;;;;;-2.09;98.66;95759.00;4973814;28;20008;-71
2024/01/16 10:16:18;;;;;;;;;;;;;;;-2.11;98.78;95754.00;5005907;28;19975;-76
2024/01/16 10:18:43;;;;;;;;;;;;;;;-2.12;93.92;95720.78;5005963;28;19986;-77
2024/01/16 10:21:19;;;;;;;;;;;;;;;-2.15;98.01;95728.81;5005835;28;19988;-76
2024/01/16 10:23:45;;;;;;;;;;;;;;;-2.08;100.00;95758.03;4990260;28;19947;-77
2024/01/16 10:26:12;;;;;;;;;;;;;;;-1.96;100.00;95761.94;5006077;28;20029;-77
2024/01/16 10:28:39;;;;;;;;;;;;;;;-1.81;100.00;95758.75;5005761;28;19940;-76
2024/01/16 10:31:05;;;;;;;;;;;;;;;-1.66;97.51;95727.13;5006232;28;19936;-73
2024/01/16 10:33:31;;;;;;;;;;;;;;;-1.47;99.30;95745.78;4989305;28;20133;-75
2024/01/16 10:36:12;;;;;;;;;;;;;;;-1.16;100.00;95750.28;4973225;28;19941;-73
2024/01/16 10:38:39;;;;;;;;;;;;;;;-0.79;97.88;95729.16;5005869;28;19939;-73
2024/01/16 10:41:12;;;;;;;;;;;;;;;-0.50;92.37;95669.38;5062744;28;19959;-74
2024/01/16 10:43:38;;;;;;;;;;;;;;;-0.36;95.29;95696.19;5048819;28;19936;-73
2024/01/16 10:46:08;;;;;;;;;;;;;;;-0.26;93.32;95704.50;5049632;28;20087;-73
2024/01/16 10:48:34;;;;;;;;;;;;;;;-0.26;89.71;95668.44;5048585;28;19941;-73
2024/01/16 10:51:01;;;;;;;;;;;;;;;-0.13;93.02;95672.22;5032296;28;19942;-76
2024/01/16 10:53:30;;;;;;;;;;;;;;;0.01;85.62;95611.44;5048493;28;19936;-72
2024/01/16 10:55:57;;;;;;;;;;;;;;;0.09;88.65;95655.19;5066803;28;20114;-72
2024/01/16 10:58:23;;;;;;;;;;;;;;;0.14;86.11;95634.84;5049191;28;19935;-72
2024/01/16 11:00:51;;;;;;;;;;;;;;;0.29;91.93;95671.78;5066197;28;19950;-72
2024/01/16 11:03:36;;;;;;;;;;;;;;;0.37;87.91;95643.38;5049140;28;19988;-71
2024/01/16 11:06:04;;;;;;;;;;;;;;;0.54;85.95;95633.72;5066586;28;19937;-71
2024/01/16 11:08:33;;;;;;;;;;;;;;;0.77;90.89;95661.25;5066483;28;19956;-76
2024/01/16 11:11:00;;;;;;;;;;;;;;;0.96;88.63;95641.88;5032448;28;19945;-77
2024/01/16 11:13:26;;;;;;;;;;;;;;;1.02;88.18;95641.94;5048832;28;20210;-77
2024/01/16 11:15:53;;;;;;;;;;;;;;;1.14;86.89;95624.25;5048134;28;19934;-78
2024/01/16 11:18:19;;;;;;;;;;;;;;;1.29;79.38;95564.81;5031445;28;19993;-76
2024/01/16 11:20:45;;;;;;;;;;;;;;;1.25;81.85;95573.13;5048788;28;19963;-76
2024/01/16 11:23:11;;;;;;;;;;;;;;;1.21;86.55;95607.03;5048844;28;19941;-77
2024/01/16 11:25:37;;;;;;;;;;;;;;;1.20;84.95;95600.28;5065796;28;19939;-78
2024/01/16 11:28:13;;;;;;;;;;;;;;;1.24;89.92;95628.31;5066485;28;19935;-80
2024/01/16 11:30:39;;;;;;;;;;;;;;;1.05;87.25;95625.31;5048543;28;19946;-74
2024/01/16 11:33:05;;;;;;;;;;;;;;;1.16;89.28;95624.06;5048732;28;19943;-74
2024/01/16 11:35:33;;;;;;;;;;;;;;;1.25;82.95;95581.66;5047925;28;20010;-75
2024/01/16 11:38:16;;;;;;;;;;;;;;;1.35;86.56;95614.97;5066326;28;19940;-75
2024/01/16 11:40:43;;;;;;;;;;;;;;;1.42;87.50;95593.38;5066294;28;20119;-76
2024/01/16 11:43:27;;;;;;;;;;;;;;;1.49;89.11;95606.41;5066217;28;20211;-74
2024/01/16 11:45:53;;;;;;;;;;;;;;;1.55;85.52;95577.22;5047687;28;19941;-78
2024/01/16 11:48:19;;;;;;;;;;;;;;;1.57;81.10;95535.69;5047812;28;19940;-76
2024/01/16 11:50:45;;;;;;;;;;;;;;;1.70;84.01;95566.03;5065810;28;19950;-79
2024/01/16 11:53:32;;;;;;;;;;;;;;;1.69;82.81;95531.66;5048122;28;19931;-78
2024/01/16 11:56:07;;;;;;;;;;;;;;;1.76;85.65;95532.50;5065886;28;19936;-77
2024/01/16 11:58:57;;;;;;;;;;;;;;;1.83;100.00;95670.38;5066006;28;19943;-78
2024/01/16 12:01:23;;;;;;;;;;;;;;;2.17;81.66;95518.13;5065612;28;19950;-79
2024/01/16 12:04:04;;;;;;;;;;;;;;;2.16;85.05;95540.63;5064715;28;19989;-79
2024/01/16 12:06:30;;;;;;;;;;;;;;;2.22;84.54;95523.53;5065518;28;19934;-78
2024/01/16 12:09:15;;;;;;;;;;;;;;;2.20;85.79;95525.50;5065663;28;19947;-79
2024/01/16 12:11:45;;;;;;;;;;;;;;;2.11;81.21;95483.47;5065457;28;19937;-80
2024/01/16 12:14:14;;;;;;;;;;;;;;;1.91;79.75;95516.94;5047504;28;20244;-77
2024/01/16 12:16:40;;;;;;;;;;;;;;;1.68;79.26;95562.84;5064671;28;20149;-78
2024/01/16 12:19:09;;;;;;;;;;;;;;;1.50;80.49;95568.44;5065566;28;20021;-78
2024/01/16 12:21:43;;;;;;;;;;;;;;;1.96;99.69;95581.81;5046827;28;20127;-77
2024/01/16 12:24:13;;;;;;;;;;;;;;;2.27;83.70;95534.13;5064656;28;20176;-78
2024/01/16 12:26:39;;;;;;;;;;;;;;;2.24;81.46;95558.56;5047519;28;19936;-73
2024/01/16 12:29:08;;;;;;;;;;;;;;;2.18;85.93;95592.13;5047489;28;19937;-72
2024/01/16 12:31:34;;;;;;;;;;;;;;;2.15;82.75;95569.25;5046915;28;19933;-73
2024/01/16 12:34:09;;;;;;;;;;;;;;;1.92;78.42;95549.56;5064569;28;20248;-72
2024/01/16 12:36:37;;;;;;;;;;;;;;;1.76;77.84;95550.59;5064633;28;20220;-73
2024/01/16 12:39:03;;;;;;;;;;;;;;;1.72;83.90;95562.31;5047157;28;19940;-73